Ride Results

Kalbar (The Great South East) (27-05-2007)
Ride distance: 80.0 km

Outcomes - Kalbar (The Great South East) (27-05-2007)
Division No. of Entries Retired / DNE Completed Withdrawn Ineligible V/O Percentage Completed
HW 28 - 20 - - 8 71.43%
MW 53 - 38 4 - 11 71.70%
LW 35 - 28 2 - 5 80.00%
JN 11 - 8 - - 3 72.73%
Totals 127 - 94 6 - 27 74.02%
Results - Kalbar (The Great South East) (27-05-2007)
No. Rider Horse Place Time Leg Speeds Total
Km/Hr
H/R bpm
Heavyweight
124 Noel Weismann Hirstglen Maybe 1 4:44:00 18.3, 15.4 16.90 32, 43, 47 (Avg:45)
3 John Simpson Charaway Chaivu 2 5:12:00 18.0, 13.0 15.38 33, 39, 41 (Avg:40)
83 John Dugan Performance Park Lady Kharisma 3 5:26:01 18.9, 11.5 14.72 33, 48, 49 (Avg:48)
66 Paul Lengronne Deep Forest Contest 4 5:26:02 17.2, 12.4 14.72 35, 46, 49 (Avg:47)
22 Olaf Lochtenberg Matta Mia Ademi 5 5:59:00 13.4, 13.2 13.37 36, 45, 51 (Avg:48)
101 Mark Nimon Ringarah Malik 6 6:11:00 13.4, 12.4 12.94 43, 47, 45 (Avg:46)
27 Davin Coughran Jessie Ima James 7 6:16:00 12.4, 13.1 12.77 33, 38, 42 (Avg:40)
57 Dallas Blakely Magnum 8 6:22:00 13.1, 11.9 12.57 37, 43, 50 (Avg:46)
94 Greg Garred Shannonwood Sub 9 6:28:00 13.8, 10.9 12.37 45, 41, 50 (Avg:45)
55 Jan Rohweder Warraba Haziel 9 6:28:00 13.4, 11.2 12.37 44, 41, 47 (Avg:44)
127 Ursula Keenan Hirstglen Sahara 11 6:30:00 13.0, 11.5 12.31 28, 39, 37 (Avg:38)
51 Kim Goss Snip 12 6:40:00 13.2, 10.7 12.00 34, 43, 57 (Avg:50)
93 Gerard Bou Bullarto Fiorelli 13 6:42:00 13.2, 10.6 11.94 37, 34, 47 (Avg:40)
90 Edward (ted) Fitzgerald Bacchante Silver Lace 13 6:42:00 13.2, 10.6 11.94 40, 45, 47 (Avg:46)
39 Ricky Petersen Ashraf Sparkling Polaris 15 6:43:00 13.4, 10.4 11.91 34, 39, 51 (Avg:45)
2 Andy Hansen Akina Nessah 16 6:50:00 12.5, 10.8 11.71 31, 38, 51 (Avg:44)
77 Belinda Waters Dunwingeri Maashhar 17 7:12:00 12.5, 9.7 11.11 42, 42, 54 (Avg:48)
76 Meg Butler Ibn Al Houri 18 7:13:00 12.3, 9.8 11.09 42, 40, 55 (Avg:47)
24 Ella Ormes Lichacz Coolong Park Shalima 19 7:24:00 12.3, 9.3 10.81 47, 46, 50 (Avg:48)
116 Jodie Vickery Rodborough Eclipse 19 7:24:00 12.3, 9.3 10.81 31, 46, 51 (Avg:48)
105 Ron Haigh Woodbourne Count Me Lucky Lame L2 0:00:00 12.6, 11.2 - 41, 43, 52 (Avg:47)
62 Bruce Moore Summer Park Douglas Explorer Lame L2 0:00:00 13.4, 11.3 - 42, 43, 54 (Avg:48)
118 Allyson Taylor Everon Park Shebell Heart Rate L2 0:00:00 12.0, 9.4 - 40, 47, 64 (Avg:55)
9 Peter Toft Bremervale Justice Lame L2 0:00:00 13.8, 17.8 - 29, 43, 59 (Avg:51)
32 Dick Collyer Magdalina Lame L1 0:00:00 12.8 - 35, 37 (Avg:37)
121 David Horton Eskdale Espirique Lame L1 0:00:00 20.1 - 36, 43 (Avg:43)
103 David Pembroke Mt Eerwah Silverado Lame L1 0:00:00 13.1 - 32, 38 (Avg:38)
16 Kathryn Priol Follydown Gai Emerald Lame L1 0:00:00 13.1 - 34, 40 (Avg:40)
Middleweight
46 Judy Battams Nangamba Alisaar 1 4:09:00 20.4, 18.0 19.28 38, 43, 48 (Avg:45)
45 Wayne McKinnon Dunbar Lexus 1 4:09:00 20.4, 18.0 19.28 38, 45, 43 (Avg:44)
34 Ray Vlad Mithras Darius 1 4:09:00 20.1, 18.3 19.28 38, 44, 43 (Avg:43)
20 Bruce Seaward Monterra Ibn Silver Magic 4 4:18:00 17.5, 19.9 18.60 43, 41, 53 (Avg:47)
42 Sue Crockett Dakila Renoasette 5 4:38:00 18.9, 15.5 17.27 31, 47, 52 (Avg:49)
96 Narelle Childs Arsley House Eryldene 6 4:39:00 17.8, 16.4 17.20 37, 40, 44 (Avg:42)
52 Jasmine Thompson Caramea Dancing Heart 6 4:39:00 17.8, 16.4 17.20 31, 51, 60 (Avg:55)
49 Gayle Holmes Aloha Spartacus 8 4:46:00 17.4, 15.9 16.78 36, 43, 47 (Avg:45)
47 Akhmed Pshunov Captain's Creek Rupert 8 4:46:00 17.4, 15.9 16.78 36, 48, 45 (Avg:46)
7 Louis Botha Sunhaven Brooklyn 10 4:48:00 16.3, 17.0 16.67 33, 36, 46 (Avg:41)
113 Wendy Smith Midu Jacelle 11 5:20:00 18.0, 12.4 15.00 36, 40, 46 (Avg:43)
64 Marion Lengronne Midu Kaleisha 12 6:01:00 13.4, 13.0 13.30 33, 37, 57 (Avg:47)
29 Caroline Fitzgerald Lanamere Femmara 13 6:10:00 13.4, 12.4 12.97 33, 43, 54 (Avg:48)
26 Fiona Fenech Pilgrim 14 6:16:00 12.4, 13.1 12.77 36, 36, 38 (Avg:37)
1 Julianne Higgins Lenannlaw Vitality 14 6:16:00 13.5, 11.9 12.77 41, 41, 49 (Avg:45)
81 Emma Holland Shardell Jarrod 16 6:21:00 13.4, 11.7 12.60 45, 46, 48 (Avg:47)
95 Jaime Mansbridge Shannonwood Ezar 17 6:28:00 13.8, 10.9 12.37 30, 41, 55 (Avg:48)
111 Lee Edwards Melcot Samara 18 6:30:00 13.2, 11.3 12.31 38, 38, 43 (Avg:40)
123 Vanessa Tiffen Hirstglen Texas Rose 18 6:30:00 13.0, 11.5 12.31 39, 41, 46 (Avg:43)
59 Kerry Mckay Macedonian Rakkali 20 6:32:00 13.1, 11.3 12.24 38, 37, 47 (Avg:42)
84 James Sheahan Kadeen 20 6:32:00 13.0, 11.4 12.24 34, 44, 46 (Avg:45)
8 Penny Toft Magnum 20 6:32:00 13.0, 11.4 12.24 25, 36, 38 (Avg:37)
82 Carmel Trevorrow Burralga Bourbon 20 6:32:00 13.0, 11.4 12.24 42, 40, 38 (Avg:39)
107 Ken Moir Moondarra Diamonds'n Lace 24 6:38:00 13.0, 11.0 12.06 29, 35, 46 (Avg:40)
109 Jasmin Hanson Marja My Girl 25 6:39:00 13.4, 10.6 12.03 44, 53, 44 (Avg:48)
48 Jacque Wright Sideshow Bob 26 6:41:00 13.1, 10.7 11.97 40, 45, 60 (Avg:52)
35 Karen Weeden Claralee Silverdo 27 6:43:00 13.4, 10.4 11.91 41, 46, 60 (Avg:53)
17 Brad Barwell Chaswyck Fourex 28 6:50:00 12.5, 10.8 11.71 33, 43, 54 (Avg:48)
67 Karen Fields Jayhal Shah 28 6:50:00 12.6, 10.7 11.71 43, 38, 45 (Avg:41)
30 Jillian Crowley Lilla 30 6:59:00 12.8, 10.1 11.46 36, 42, 47 (Avg:44)
33 Lorraine Ternouth Drumlin Mystic Moon 30 6:59:00 12.8, 10.1 11.46 29, 46, 42 (Avg:44)
70 Terrence Weier Crystabarbara 30 6:59:00 12.8, 10.1 11.46 38, 39, 42 (Avg:40)
65 Dale Hargreaves Murland Park Mikahla 33 7:07:00 12.8, 9.7 11.24 37, 40, 50 (Avg:45)
13 Jo Weismann Malcolm 33 7:07:00 13.1, 9.5 11.24 38, 40, 44 (Avg:42)
12 Craig Ellison Sasam 35 7:08:00 13.1, 9.5 11.21 39, 43, 49 (Avg:46)
79 Anne Barlow Tyto Ivan 36 7:12:00 12.5, 9.7 11.11 34, 45, 46 (Avg:45)
91 Yvonne Mears Dunwingeri Nova 37 7:24:00 12.2, 9.4 10.81 30, 42, 43 (Avg:42)
119 Leeanne Bartlett Ben Ibn Raba 38 7:28:00 12.0, 9.4 10.71 31, 38, 44 (Avg:41)
98 Derek Armitage Burralga Proteus Lame L2 0:00:00 13.0, 11.3 - 35, 36, 37 (Avg:36)
50 Kacey Childs Follyfoot Heart Rate L2 0:00:00 17.8, 16.4 - 41, 52, 69 (Avg:60)
108 Derryn Nix Dunbar El Maestro Lame L2 0:00:00 18.4, 18.0 - 48, 41, 51 (Avg:46)
102 Robyn Pembroke Mt Eerwah Nikita Lame L2 0:00:00 13.1, 11.5 - 30, 39, 46 (Avg:42)
80 Billie Barron Roswick Fall Lame L1 0:00:00 11.8 - 36, 45 (Avg:45)
28 Tony Bateman Sir Rook Lame L1 0:00:00 11.4 - 43, 55 (Avg:55)
114 Duncan Boyd Aloha Zalik Widthdrawn L1 0:00:00 - - 40, 39 (Avg:39)
41 Chris Enstram Alamo Kipling Widthdrawn L1 0:00:00 - - 36, 45 (Avg:45)
92 Takeshi Ito Keisha Widthdrawn L1 0:00:00 - - 31, 34 (Avg:34)
126 Michelle Morrison Summit Park Raz Widthdrawn L1 0:00:00 - - 40, 41 (Avg:41)
18 Jenny Noffke Sailor Lame L1 0:00:00 14.8 - 29, 39 (Avg:39)
86 Bridget Nottle Riverdance Nazareth Lame L1 0:00:00 13.5 - 32, 42 (Avg:42)
44 Vicki Prentice El Rebel Stimulator Metabolics non-invasive L1 0:00:00 13.5 - 34, 50 (Avg:50)
4 Jean Taylor Nerim Heart Rate L1 0:00:00 18.0 - 31, 60 (Avg:60)
53 Cheryl Neal Domani Lame P/R 0:00:00 - - 28
Lightweight
88 Angela Hawks Crysari 1 4:18:00 19.5, 17.5 18.60 34, 37, 47 (Avg:42)
63 Emma Kirby Bremervale Bandyt 1 4:18:00 20.3, 16.8 18.60 40, 45, 49 (Avg:47)
21 Corinne Rees Fabio 1 4:18:00 19.7, 17.4 18.60 35, 41, 51 (Avg:46)
36 Clare Fleming Birramalee Queen of Hearts 4 4:35:00 18.3, 16.4 17.45 36, 42, 48 (Avg:45)
120 Annette Chamberlain Sir Ninian 5 4:36:00 18.3, 16.3 17.39 31, 36, 39 (Avg:37)
71 Amanda Weier Ashraf Sparkling Prince 6 4:39:00 17.5, 16.7 17.20 38, 49, 59 (Avg:54)
125 Karen Winkel Belgari Bentley 7 4:46:00 17.3, 16.1 16.78 39, 44, 51 (Avg:47)
97 Amanda Powell Shonavale Kamilla 8 5:00:00 16.8, 15.1 16.00 39, 41, 49 (Avg:45)
38 Anne Jones Tongarra Red Cloud 9 5:02:00 16.7, 14.9 15.89 36, 36, 44 (Avg:40)
110 Renae Kuhn Marja Tippany 10 5:09:00 16.8, 14.2 15.53 48, 41, 49 (Avg:45)
54 Katherine Ryan Sovereeign 11 5:20:00 17.1, 13.0 15.00 38, 36, 51 (Avg:43)
87 Adrian Brickley Argent's Fire 12 5:27:00 15.2, 14.0 14.68 29, 42, 46 (Avg:44)
115 Rachel Kuns Kelkette Park Finesse 13 5:48:00 15.1, 12.4 13.79 38, 37, 44 (Avg:40)
23 Terri Anderson Matta Mia Dayman 14 6:00:00 13.4, 13.1 13.33 39, 43, 43 (Avg:43)
40 Ute Jordan Birru Avishaah 15 6:11:00 13.4, 12.4 12.94 48, 37, 44 (Avg:40)
56 Kaylea Maher Hillbrae Zoro 16 6:17:00 13.4, 11.9 12.73 33, 38, 42 (Avg:40)
58 Shelley-ann Kimber Duo Park Orsum 17 6:18:00 13.3, 11.9 12.70 40, 43, 46 (Avg:44)
69 Barbara Draheim Dunwingeri Shamarah 18 6:22:00 13.4, 11.6 12.57 33, 40, 45 (Avg:42)
61 Margaret Harvey Banbra Shadow 18 6:22:00 13.5, 11.5 12.57 32, 36, 43 (Avg:39)
100 Cathy Herve Shannonwood Bree 20 6:28:00 13.8, 10.9 12.37 38, 44, 49 (Avg:46)
104 Carla Jones Mt Eerwah Anastazia 20 6:28:00 13.1, 11.5 12.37 28, 33, 41 (Avg:37)
60 Rebecca Forgan Sundown Park Eastwind 22 6:32:00 13.1, 11.3 12.24 28, 41, 38 (Avg:39)
106 Paulette Skinner Drumlin Moonshine 23 6:38:00 12.9, 11.1 12.06 28, 34, 51 (Avg:42)
11 Bec Miller Porcelain Doll 24 7:08:00 13.1, 9.5 11.21 35, 39, 46 (Avg:42)
78 Christine Barlow Sa-har Shetari 25 7:12:00 12.5, 9.7 11.11 39, 40, 52 (Avg:46)
122 Stacey Skehan Penwisk Ice Magic 26 7:24:00 12.3, 9.3 10.81 45, 42, 45 (Avg:43)
117 Pip Lillyman Meadowbrook Rhapsody 27 7:28:00 12.0, 9.4 10.71 30, 40, 38 (Avg:39)
112 Karen Trundell Rodborough Aneiki 28 7:54:00 12.3, 8.3 10.13 40, 43, 47 (Avg:45)
75 Christine Christie Reg Lame L2 0:00:00 18.0, 9.7 - 36, 42, 49 (Avg:45)
6 Brooke Warner Ningadoo Envy Lame L2 0:00:00 13.0, 11.8 - 58, 38, 47 (Avg:42)
19 Caroline Windle Satin Lace Lame L2 0:00:00 17.5, 19.9 - 40, 41, 50 (Avg:45)
128 Aanja Hamelink Captain's Creek Cruise Lame L1 0:00:00 17.3 - 38, 34 (Avg:34)
43 Sue Jones El Castano Mirada Lame L1 0:00:00 13.4 - 37, 45 (Avg:45)
85 Leanne Stevenson Quartz Hill Farm Quicksilver Widthdrawn L1 0:00:00 - - 26, 33 (Avg:33)
31 Janelle Weise Sahala Afrikhaan Widthdrawn P/R 0:00:00 - - 38
Junior
72 Brianna Weier Thalara 1 4:39:00 17.5, 16.7 17.20 39, 38, 46 (Avg:42)
99 Tarnia Kittel Raaward Channelle 2 5:09:00 16.8, 14.2 15.53 35, 42, 51 (Avg:46)
74 Breonie McLennan Desert Sand 3 5:12:00 20.1, 11.9 15.38 34, 48, 49 (Avg:48)
5 Alexandra Toft Bramall Jazzmin 3 5:12:00 13.8, 17.8 15.38 27, 34, 45 (Avg:39)
25 Amaya Thomas Cedar Springs The Full Monty 5 6:16:00 12.4, 13.1 12.77 34, 38, 44 (Avg:41)
68 Peter Fields Kar-Trice Harmoney 6 6:50:00 12.6, 10.7 11.71 39, 40, 43 (Avg:41)
10 Haley Jean Steuer Midu Ariel 7 7:07:00 13.0, 9.5 11.24 34, 39, 49 (Avg:44)
14 Jess Dakin M. Fiass 8 7:08:00 13.1, 9.5 11.21 34, 36, 45 (Avg:40)
89 Ingrid Ambrosiussen Shaah Lame L1 0:00:00 16.8 - 37, 40 (Avg:40)
15 Lisa Burgess Eljannah Wafa Lame L1 0:00:00 20.1 - 44, 37 (Avg:37)
37 Jade Vergis Carnarvon Cavalier Lame L1 0:00:00 16.7 - 33, 36 (Avg:36)